sensor_id;sensor_type;location;lat;lon;timestamp;pressure;altitude;pressure_sealevel;temperature;humidity
75298;BME280;63896;45.990;18.688;2023-03-31T00:00:58;100602.13;;;11.76;84.85
75298;BME280;63896;45.990;18.688;2023-03-31T00:04:02;100598.66;;;11.69;85.02
75298;BME280;63896;45.990;18.688;2023-03-31T00:07:07;100600.94;;;11.66;86.70
75298;BME280;63896;45.990;18.688;2023-03-31T00:10:09;100633.28;;;11.56;87.63
75298;BME280;63896;45.990;18.688;2023-03-31T00:13:17;100646.41;;;11.51;88.54
75298;BME280;63896;45.990;18.688;2023-03-31T00:16:20;100634.03;;;11.32;90.09
75298;BME280;63896;45.990;18.688;2023-03-31T00:19:23;100613.28;;;11.22;91.98
75298;BME280;63896;45.990;18.688;2023-03-31T00:22:26;100610.22;;;11.19;92.26
75298;BME280;63896;45.990;18.688;2023-03-31T00:25:29;100617.19;;;11.13;92.74
75298;BME280;63896;45.990;18.688;2023-03-31T00:28:32;100643.16;;;11.05;93.58
75298;BME280;63896;45.990;18.688;2023-03-31T00:31:35;100650.72;;;11.01;94.12
75298;BME280;63896;45.990;18.688;2023-03-31T00:34:38;100642.38;;;10.97;94.25
75298;BME280;63896;45.990;18.688;2023-03-31T00:37:40;100641.16;;;10.93;93.75
75298;BME280;63896;45.990;18.688;2023-03-31T00:40:45;100640.56;;;10.91;93.43
75298;BME280;63896;45.990;18.688;2023-03-31T00:44:14;100635.47;;;10.90;94.50
75298;BME280;63896;45.990;18.688;2023-03-31T00:47:20;100622.63;;;10.87;93.66
75298;BME280;63896;45.990;18.688;2023-03-31T00:50:26;100622.41;;;10.88;93.73
75298;BME280;63896;45.990;18.688;2023-03-31T00:53:32;100609.34;;;10.87;93.98
75298;BME280;63896;45.990;18.688;2023-03-31T00:56:41;100605.25;;;10.91;93.02
75298;BME280;63896;45.990;18.688;2023-03-31T00:59:50;100603.22;;;10.86;93.89
75298;BME280;63896;45.990;18.688;2023-03-31T01:02:57;100592.00;;;10.84;93.41
75298;BME280;63896;45.990;18.688;2023-03-31T01:06:03;100595.06;;;10.88;92.72
75298;BME280;63896;45.990;18.688;2023-03-31T01:09:08;100593.63;;;10.85;92.76
75298;BME280;63896;45.990;18.688;2023-03-31T01:12:12;100584.06;;;10.78;93.12
75298;BME280;63896;45.990;18.688;2023-03-31T01:15:18;100578.75;;;10.78;92.51
75298;BME280;63896;45.990;18.688;2023-03-31T01:18:21;100561.56;;;10.87;91.56
75298;BME280;63896;45.990;18.688;2023-03-31T01:24:57;100565.03;;;10.87;91.36
75298;BME280;63896;45.990;18.688;2023-03-31T01:28:11;100562.63;;;10.79;91.73
75298;BME280;63896;45.990;18.688;2023-03-31T01:34:51;100557.75;;;10.76;91.72
75298;BME280;63896;45.990;18.688;2023-03-31T01:51:03;100548.03;;;10.57;92.24
75298;BME280;63896;45.990;18.688;2023-03-31T01:57:36;100536.16;;;10.60;91.59
75298;BME280;63896;45.990;18.688;2023-03-31T02:00:46;100532.69;;;10.66;91.15
75298;BME280;63896;45.990;18.688;2023-03-31T02:07:16;100513.53;;;10.57;91.61
75298;BME280;63896;45.990;18.688;2023-03-31T02:10:21;100502.94;;;10.50;90.98
75298;BME280;63896;45.990;18.688;2023-03-31T02:13:26;100508.66;;;10.47;91.43
75298;BME280;63896;45.990;18.688;2023-03-31T02:16:31;100503.41;;;10.41;91.88
75298;BME280;63896;45.990;18.688;2023-03-31T02:19:38;100504.00;;;10.43;91.63
75298;BME280;63896;45.990;18.688;2023-03-31T02:22:45;100500.53;;;10.42;91.48
75298;BME280;63896;45.990;18.688;2023-03-31T02:25:52;100500.94;;;10.39;90.98
75298;BME280;63896;45.990;18.688;2023-03-31T02:28:57;100506.91;;;10.35;90.83
75298;BME280;63896;45.990;18.688;2023-03-31T02:35:28;100512.44;;;10.20;91.84
75298;BME280;63896;45.990;18.688;2023-03-31T02:38:34;100508.97;;;10.13;91.47
75298;BME280;63896;45.990;18.688;2023-03-31T02:41:39;100508.34;;;10.04;92.00
75298;BME280;63896;45.990;18.688;2023-03-31T02:44:42;100506.56;;;9.98;91.78
75298;BME280;63896;45.990;18.688;2023-03-31T02:47:45;100507.59;;;9.91;92.33
75298;BME280;63896;45.990;18.688;2023-03-31T02:54:14;100513.94;;;9.77;92.32
75298;BME280;63896;45.990;18.688;2023-03-31T03:01:22;100517.59;;;9.63;92.67
75298;BME280;63896;45.990;18.688;2023-03-31T03:04:36;100511.91;;;9.59;92.47
75298;BME280;63896;45.990;18.688;2023-03-31T03:11:22;100519.84;;;9.72;91.47
75298;BME280;63896;45.990;18.688;2023-03-31T03:14:35;100517.19;;;9.66;92.07
75298;BME280;63896;45.990;18.688;2023-03-31T03:17:46;100513.31;;;9.55;91.94
75298;BME280;63896;45.990;18.688;2023-03-31T03:20:49;100514.75;;;9.51;92.64
75298;BME280;63896;45.990;18.688;2023-03-31T03:23:52;100508.44;;;9.45;92.57
75298;BME280;63896;45.990;18.688;2023-03-31T03:26:56;100499.06;;;9.43;92.85
75298;BME280;63896;45.990;18.688;2023-03-31T03:29:59;100495.22;;;9.45;92.53
75298;BME280;63896;45.990;18.688;2023-03-31T03:33:04;100501.31;;;9.26;93.58
75298;BME280;63896;45.990;18.688;2023-03-31T03:36:09;100501.69;;;9.10;93.54
75298;BME280;63896;45.990;18.688;2023-03-31T03:39:12;100501.88;;;9.08;93.66
75298;BME280;63896;45.990;18.688;2023-03-31T03:42:15;100491.31;;;9.08;93.88
75298;BME280;63896;45.990;18.688;2023-03-31T03:45:18;100501.47;;;9.05;94.52
75298;BME280;63896;45.990;18.688;2023-03-31T03:48:21;100493.13;;;9.08;94.59
75298;BME280;63896;45.990;18.688;2023-03-31T03:51:23;100494.75;;;9.16;94.29
75298;BME280;63896;45.990;18.688;2023-03-31T03:54:26;100489.06;;;9.12;94.21
75298;BME280;63896;45.990;18.688;2023-03-31T03:57:29;100489.47;;;9.16;94.08
75298;BME280;63896;45.990;18.688;2023-03-31T04:00:32;100488.47;;;9.10;94.15
75298;BME280;63896;45.990;18.688;2023-03-31T04:03:35;100482.34;;;9.03;94.28
75298;BME280;63896;45.990;18.688;2023-03-31T04:06:38;100480.91;;;9.00;93.85
75298;BME280;63896;45.990;18.688;2023-03-31T04:09:41;100475.63;;;9.07;93.34
75298;BME280;63896;45.990;18.688;2023-03-31T04:12:44;100479.91;;;9.01;93.47
75298;BME280;63896;45.990;18.688;2023-03-31T04:15:47;100475.41;;;8.95;93.19
75298;BME280;63896;45.990;18.688;2023-03-31T04:18:52;100468.47;;;8.81;94.06
75298;BME280;63896;45.990;18.688;2023-03-31T04:21:58;100467.03;;;8.79;94.30
75298;BME280;63896;45.990;18.688;2023-03-31T04:25:05;100461.13;;;8.77;94.33
75298;BME280;63896;45.990;18.688;2023-03-31T04:28:16;100469.06;;;8.77;94.99
75298;BME280;63896;45.990;18.688;2023-03-31T04:31:19;100469.09;;;8.83;94.83
75298;BME280;63896;45.990;18.688;2023-03-31T04:34:27;100468.69;;;8.80;94.72
75298;BME280;63896;45.990;18.688;2023-03-31T04:37:36;100460.97;;;9.04;93.74
75298;BME280;63896;45.990;18.688;2023-03-31T04:40:40;100451.19;;;9.31;92.21
75298;BME280;63896;45.990;18.688;2023-03-31T04:43:43;100446.50;;;9.53;91.35
75298;BME280;63896;45.990;18.688;2023-03-31T04:46:46;100443.41;;;9.76;90.04
75298;BME280;63896;45.990;18.688;2023-03-31T04:49:49;100449.28;;;9.91;89.08
75298;BME280;63896;45.990;18.688;2023-03-31T04:52:51;100449.06;;;9.99;88.10
75298;BME280;63896;45.990;18.688;2023-03-31T04:55:54;100444.13;;;10.09;87.96
75298;BME280;63896;45.990;18.688;2023-03-31T04:58:57;100440.84;;;10.20;87.20
75298;BME280;63896;45.990;18.688;2023-03-31T05:02:00;100434.53;;;10.21;87.28
75298;BME280;63896;45.990;18.688;2023-03-31T05:05:03;100436.31;;;10.27;87.14
75298;BME280;63896;45.990;18.688;2023-03-31T05:08:06;100440.59;;;10.35;86.21
75298;BME280;63896;45.990;18.688;2023-03-31T05:11:09;100437.09;;;10.41;86.29
75298;BME280;63896;45.990;18.688;2023-03-31T05:14:12;100442.41;;;10.41;86.29
75298;BME280;63896;45.990;18.688;2023-03-31T05:17:15;100432.75;;;10.53;85.97
75298;BME280;63896;45.990;18.688;2023-03-31T05:20:19;100434.91;;;10.63;86.10
75298;BME280;63896;45.990;18.688;2023-03-31T05:23:23;100434.28;;;10.67;85.82
75298;BME280;63896;45.990;18.688;2023-03-31T05:26:25;100441.75;;;10.83;84.87
75298;BME280;63896;45.990;18.688;2023-03-31T05:29:28;100425.50;;;10.98;83.86
75298;BME280;63896;45.990;18.688;2023-03-31T05:32:32;100429.09;;;11.10;83.28
75298;BME280;63896;45.990;18.688;2023-03-31T05:35:35;100427.56;;;11.21;83.39
75298;BME280;63896;45.990;18.688;2023-03-31T05:38:39;100425.00;;;11.32;82.36
75298;BME280;63896;45.990;18.688;2023-03-31T05:41:42;100423.19;;;11.51;81.23
75298;BME280;63896;45.990;18.688;2023-03-31T05:44:45;100424.53;;;11.85;79.48
75298;BME280;63896;45.990;18.688;2023-03-31T05:47:48;100434.72;;;12.06;78.68
75298;BME280;63896;45.990;18.688;2023-03-31T05:50:50;100425.16;;;12.35;77.77
75298;BME280;63896;45.990;18.688;2023-03-31T05:53:53;100422.25;;;12.55;76.52
75298;BME280;63896;45.990;18.688;2023-03-31T05:56:57;100412.03;;;12.52;75.84
75298;BME280;63896;45.990;18.688;2023-03-31T05:59:59;100425.56;;;12.50;75.04
75298;BME280;63896;45.990;18.688;2023-03-31T06:03:06;100424.47;;;12.69;74.46
75298;BME280;63896;45.990;18.688;2023-03-31T06:06:16;100423.78;;;12.62;74.11
75298;BME280;63896;45.990;18.688;2023-03-31T06:09:20;100414.25;;;12.55;73.64
75298;BME280;63896;45.990;18.688;2023-03-31T06:12:23;100411.59;;;12.55;73.84
75298;BME280;63896;45.990;18.688;2023-03-31T06:15:26;100419.47;;;12.61;73.17
75298;BME280;63896;45.990;18.688;2023-03-31T06:18:31;100418.88;;;12.59;73.56
75298;BME280;63896;45.990;18.688;2023-03-31T06:21:34;100410.16;;;12.70;73.03
75298;BME280;63896;45.990;18.688;2023-03-31T06:24:37;100420.22;;;12.80;72.56
75298;BME280;63896;45.990;18.688;2023-03-31T06:27:40;100416.31;;;12.94;72.38
75298;BME280;63896;45.990;18.688;2023-03-31T06:30:43;100420.81;;;13.47;69.47
75298;BME280;63896;45.990;18.688;2023-03-31T06:33:46;100417.09;;;13.48;70.06
75298;BME280;63896;45.990;18.688;2023-03-31T06:36:49;100414.19;;;13.61;69.52
75298;BME280;63896;45.990;18.688;2023-03-31T06:39:52;100415.19;;;13.95;68.11
75298;BME280;63896;45.990;18.688;2023-03-31T06:42:55;100412.94;;;14.15;67.66
75298;BME280;63896;45.990;18.688;2023-03-31T06:45:58;100404.19;;;14.31;66.63
75298;BME280;63896;45.990;18.688;2023-03-31T06:49:01;100417.38;;;14.94;63.68
75298;BME280;63896;45.990;18.688;2023-03-31T06:52:06;100415.34;;;15.01;63.50
75298;BME280;63896;45.990;18.688;2023-03-31T06:55:09;100417.13;;;14.96;63.15
75298;BME280;63896;45.990;18.688;2023-03-31T06:58:12;100414.41;;;14.62;64.65
75298;BME280;63896;45.990;18.688;2023-03-31T07:01:19;100415.72;;;14.76;63.96
75298;BME280;63896;45.990;18.688;2023-03-31T07:04:23;100410.25;;;15.16;62.92
75298;BME280;63896;45.990;18.688;2023-03-31T07:07:30;100407.63;;;14.88;62.86
75298;BME280;63896;45.990;18.688;2023-03-31T07:10:33;100409.03;;;14.46;64.11
75298;BME280;63896;45.990;18.688;2023-03-31T07:13:37;100405.78;;;14.44;64.87
75298;BME280;63896;45.990;18.688;2023-03-31T07:16:40;100399.41;;;15.78;60.00
75298;BME280;63896;45.990;18.688;2023-03-31T07:19:43;100398.72;;;16.09;58.27
75298;BME280;63896;45.990;18.688;2023-03-31T07:22:49;100396.53;;;17.50;56.26
75298;BME280;63896;45.990;18.688;2023-03-31T07:25:52;100402.16;;;17.91;53.22
75298;BME280;63896;45.990;18.688;2023-03-31T07:28:58;100387.31;;;17.36;54.50
75298;BME280;63896;45.990;18.688;2023-03-31T07:32:08;100385.53;;;17.52;52.63
75298;BME280;63896;45.990;18.688;2023-03-31T07:35:11;100375.09;;;17.13;54.35
75298;BME280;63896;45.990;18.688;2023-03-31T07:38:15;100373.63;;;16.42;55.22
75298;BME280;63896;45.990;18.688;2023-03-31T07:41:20;100370.50;;;16.50;56.12
75298;BME280;63896;45.990;18.688;2023-03-31T07:44:23;100378.38;;;16.35;55.53
75298;BME280;63896;45.990;18.688;2023-03-31T07:47:27;100373.47;;;18.12;51.14
75298;BME280;63896;45.990;18.688;2023-03-31T07:50:29;100369.53;;;20.30;46.18
75298;BME280;63896;45.990;18.688;2023-03-31T07:53:35;100362.72;;;21.63;41.72
75298;BME280;63896;45.990;18.688;2023-03-31T07:56:38;100361.69;;;22.81;40.16
75298;BME280;63896;45.990;18.688;2023-03-31T07:59:46;100359.59;;;22.92;38.31
75298;BME280;63896;45.990;18.688;2023-03-31T08:02:51;100356.38;;;23.22;36.90
75298;BME280;63896;45.990;18.688;2023-03-31T08:05:55;100344.13;;;24.06;35.44
75298;BME280;63896;45.990;18.688;2023-03-31T08:08:58;100359.97;;;21.92;38.29
75298;BME280;63896;45.990;18.688;2023-03-31T08:12:05;100355.72;;;19.87;42.87
75298;BME280;63896;45.990;18.688;2023-03-31T08:15:09;100362.28;;;20.98;41.41
75298;BME280;63896;45.990;18.688;2023-03-31T08:18:13;100354.78;;;22.89;37.28
75298;BME280;63896;45.990;18.688;2023-03-31T08:21:16;100355.47;;;23.26;36.38
75298;BME280;63896;45.990;18.688;2023-03-31T08:24:25;100356.94;;;25.08;33.18
75298;BME280;63896;45.990;18.688;2023-03-31T08:27:38;100349.41;;;23.76;33.96
75298;BME280;63896;45.990;18.688;2023-03-31T08:30:51;100338.16;;;22.95;35.45
75298;BME280;63896;45.990;18.688;2023-03-31T08:33:55;100333.25;;;23.70;33.99
75298;BME280;63896;45.990;18.688;2023-03-31T08:36:59;100330.03;;;23.68;34.71
75298;BME280;63896;45.990;18.688;2023-03-31T08:40:04;100320.97;;;24.00;34.46
75298;BME280;63896;45.990;18.688;2023-03-31T08:47:14;100311.94;;;24.85;32.84
75298;BME280;63896;45.990;18.688;2023-03-31T08:50:23;100306.59;;;25.42;31.95
75298;BME280;63896;45.990;18.688;2023-03-31T08:53:36;100308.22;;;25.91;30.92
75298;BME280;63896;45.990;18.688;2023-03-31T08:56:43;100288.50;;;24.89;32.78
75298;BME280;63896;45.990;18.688;2023-03-31T08:59:49;100291.25;;;25.37;31.48
75298;BME280;63896;45.990;18.688;2023-03-31T09:03:05;100293.47;;;23.93;34.88
75298;BME280;63896;45.990;18.688;2023-03-31T09:06:26;100280.38;;;23.32;35.56
75298;BME280;63896;45.990;18.688;2023-03-31T09:10:16;100285.59;;;22.69;36.00
75298;BME280;63896;45.990;18.688;2023-03-31T09:19:51;100272.22;;;25.85;30.76
75298;BME280;63896;45.990;18.688;2023-03-31T09:23:26;100255.22;;;26.57;29.73
75298;BME280;63896;45.990;18.688;2023-03-31T09:26:36;100237.28;;;27.11;28.90
75298;BME280;63896;45.990;18.688;2023-03-31T09:30:00;100235.44;;;27.03;29.29
75298;BME280;63896;45.990;18.688;2023-03-31T09:36:18;100219.88;;;24.97;32.38
75298;BME280;63896;45.990;18.688;2023-03-31T09:39:24;100218.69;;;27.42;29.61
75298;BME280;63896;45.990;18.688;2023-03-31T09:42:27;100206.38;;;27.07;28.97
75298;BME280;63896;45.990;18.688;2023-03-31T09:45:30;100199.81;;;27.37;28.40
75298;BME280;63896;45.990;18.688;2023-03-31T09:48:36;100202.31;;;26.29;29.39
75298;BME280;63896;45.990;18.688;2023-03-31T09:55:36;100184.16;;;26.50;29.11
75298;BME280;63896;45.990;18.688;2023-03-31T09:58:44;100170.31;;;26.08;29.82
75298;BME280;63896;45.990;18.688;2023-03-31T10:01:52;100179.59;;;26.80;28.54
75298;BME280;63896;45.990;18.688;2023-03-31T10:04:55;100150.63;;;26.84;28.22
75298;BME280;63896;45.990;18.688;2023-03-31T10:11:17;100146.53;;;26.98;28.38
75298;BME280;63896;45.990;18.688;2023-03-31T10:14:46;100131.81;;;27.62;27.11
75298;BME280;63896;45.990;18.688;2023-03-31T10:17:47;100145.69;;;28.10;26.21
75298;BME280;63896;45.990;18.688;2023-03-31T10:20:57;100126.97;;;28.33;26.25
75298;BME280;63896;45.990;18.688;2023-03-31T10:24:07;100117.22;;;29.29;25.71
75298;BME280;63896;45.990;18.688;2023-03-31T10:27:28;100111.09;;;28.96;25.68
75298;BME280;63896;45.990;18.688;2023-03-31T10:30:34;100097.97;;;29.65;24.51
75298;BME280;63896;45.990;18.688;2023-03-31T10:33:43;100088.91;;;28.04;26.46
75298;BME280;63896;45.990;18.688;2023-03-31T10:36:50;100081.72;;;28.44;26.07
75298;BME280;63896;45.990;18.688;2023-03-31T10:40:02;100072.75;;;29.72;24.07
75298;BME280;63896;45.990;18.688;2023-03-31T10:43:16;100072.44;;;29.33;25.08
75298;BME280;63896;45.990;18.688;2023-03-31T10:46:20;100065.94;;;29.26;24.85
75298;BME280;63896;45.990;18.688;2023-03-31T10:49:43;100044.81;;;31.27;22.67
75298;BME280;63896;45.990;18.688;2023-03-31T10:52:47;100044.56;;;30.15;23.03
75298;BME280;63896;45.990;18.688;2023-03-31T11:06:27;100047.63;;;27.93;26.29
75298;BME280;63896;45.990;18.688;2023-03-31T11:09:43;100031.88;;;27.66;26.85
75298;BME280;63896;45.990;18.688;2023-03-31T11:13:01;100021.72;;;29.92;24.24
75298;BME280;63896;45.990;18.688;2023-03-31T11:22:49;100017.81;;;28.45;26.04
75298;BME280;63896;45.990;18.688;2023-03-31T11:26:09;100002.13;;;29.77;23.70
75298;BME280;63896;45.990;18.688;2023-03-31T11:32:58;99997.63;;;32.50;20.92
75298;BME280;63896;45.990;18.688;2023-03-31T11:39:59;99972.22;;;29.25;24.01
75298;BME280;63896;45.990;18.688;2023-03-31T11:43:33;99965.72;;;29.73;22.95
75298;BME280;63896;45.990;18.688;2023-03-31T11:46:42;99953.19;;;28.61;24.17
75298;BME280;63896;45.990;18.688;2023-03-31T11:49:53;99953.00;;;28.42;25.27
75298;BME280;63896;45.990;18.688;2023-03-31T11:53:23;99930.16;;;29.58;23.74
75298;BME280;63896;45.990;18.688;2023-03-31T11:56:34;99916.16;;;30.25;23.09
75298;BME280;63896;45.990;18.688;2023-03-31T11:59:43;99894.19;;;30.57;23.12
75298;BME280;63896;45.990;18.688;2023-03-31T12:06:43;99882.31;;;29.36;23.73
75298;BME280;63896;45.990;18.688;2023-03-31T12:10:21;99886.41;;;29.58;22.77
75298;BME280;63896;45.990;18.688;2023-03-31T12:16:45;99880.88;;;30.05;22.72
75298;BME280;63896;45.990;18.688;2023-03-31T12:19:53;99886.91;;;29.79;22.23
75298;BME280;63896;45.990;18.688;2023-03-31T12:23:02;99887.88;;;32.05;20.15
75298;BME280;63896;45.990;18.688;2023-03-31T12:36:38;99858.84;;;29.82;22.17
75298;BME280;63896;45.990;18.688;2023-03-31T12:40:11;99862.03;;;30.00;21.77
75298;BME280;63896;45.990;18.688;2023-03-31T13:00:24;99825.16;;;27.68;24.62
75298;BME280;63896;45.990;18.688;2023-03-31T13:09:46;99832.06;;;28.14;23.78
75298;BME280;63896;45.990;18.688;2023-03-31T13:16:02;99808.28;;;28.26;24.57
75298;BME280;63896;45.990;18.688;2023-03-31T13:19:08;99817.59;;;26.09;27.61
75298;BME280;63896;45.990;18.688;2023-03-31T13:22:45;99798.13;;;28.55;23.96
75298;BME280;63896;45.990;18.688;2023-03-31T13:25:53;99793.63;;;28.07;24.57
75298;BME280;63896;45.990;18.688;2023-03-31T13:32:25;99794.09;;;26.46;27.18
75298;BME280;63896;45.990;18.688;2023-03-31T13:35:30;99785.63;;;25.47;28.21
75298;BME280;63896;45.990;18.688;2023-03-31T13:52:03;99730.22;;;23.87;30.65
75298;BME280;63896;45.990;18.688;2023-03-31T13:55:22;99724.22;;;23.42;32.00
75298;BME280;63896;45.990;18.688;2023-03-31T14:05:36;99730.41;;;21.83;34.24
75298;BME280;63896;45.990;18.688;2023-03-31T14:11:53;99722.81;;;21.85;34.36
75298;BME280;63896;45.990;18.688;2023-03-31T14:14:56;99722.03;;;21.71;34.78
75298;BME280;63896;45.990;18.688;2023-03-31T14:18:24;99728.31;;;21.30;34.90
75298;BME280;63896;45.990;18.688;2023-03-31T14:21:53;99705.09;;;21.02;35.98
75298;BME280;63896;45.990;18.688;2023-03-31T14:32:36;99687.56;;;22.79;33.60
75298;BME280;63896;45.990;18.688;2023-03-31T14:35:57;99693.13;;;22.29;34.40
75298;BME280;63896;45.990;18.688;2023-03-31T14:39:05;99683.13;;;22.30;34.46
75298;BME280;63896;45.990;18.688;2023-03-31T14:42:16;99690.69;;;22.19;35.04
75298;BME280;63896;45.990;18.688;2023-03-31T14:45:25;99688.66;;;22.25;35.15
75298;BME280;63896;45.990;18.688;2023-03-31T14:48:31;99682.63;;;22.06;35.94
75298;BME280;63896;45.990;18.688;2023-03-31T14:51:35;99679.81;;;22.11;35.64
75298;BME280;63896;45.990;18.688;2023-03-31T14:54:37;99675.34;;;21.70;36.29
75298;BME280;63896;45.990;18.688;2023-03-31T14:57:45;99679.50;;;21.41;37.20
75298;BME280;63896;45.990;18.688;2023-03-31T15:00:49;99677.50;;;21.46;36.91
75298;BME280;63896;45.990;18.688;2023-03-31T15:03:53;99672.22;;;20.73;37.15
75298;BME280;63896;45.990;18.688;2023-03-31T15:06:59;99675.91;;;20.63;37.61
75298;BME280;63896;45.990;18.688;2023-03-31T15:10:05;99663.84;;;20.28;38.56
75298;BME280;63896;45.990;18.688;2023-03-31T15:13:11;99672.34;;;20.17;39.42
75298;BME280;63896;45.990;18.688;2023-03-31T15:19:34;99673.88;;;19.72;40.58
75298;BME280;63896;45.990;18.688;2023-03-31T15:22:38;99672.84;;;19.49;41.39
75298;BME280;63896;45.990;18.688;2023-03-31T15:25:43;99676.56;;;19.53;41.50
75298;BME280;63896;45.990;18.688;2023-03-31T15:28:56;99678.03;;;19.40;41.63
75298;BME280;63896;45.990;18.688;2023-03-31T15:32:00;99671.41;;;19.33;41.98
75298;BME280;63896;45.990;18.688;2023-03-31T15:35:06;99678.84;;;19.41;41.73
75298;BME280;63896;45.990;18.688;2023-03-31T15:38:24;99675.78;;;19.05;42.26
75298;BME280;63896;45.990;18.688;2023-03-31T15:41:29;99680.28;;;18.91;42.68
75298;BME280;63896;45.990;18.688;2023-03-31T15:44:37;99668.66;;;18.72;43.09
75298;BME280;63896;45.990;18.688;2023-03-31T15:47:51;99671.53;;;18.51;44.18
75298;BME280;63896;45.990;18.688;2023-03-31T15:51:04;99653.28;;;18.53;44.09
75298;BME280;63896;45.990;18.688;2023-03-31T15:54:43;99664.59;;;18.45;44.88
75298;BME280;63896;45.990;18.688;2023-03-31T15:57:46;99651.72;;;18.42;44.87
75298;BME280;63896;45.990;18.688;2023-03-31T16:00:53;99658.19;;;18.41;45.04
75298;BME280;63896;45.990;18.688;2023-03-31T16:04:09;99654.78;;;18.31;45.16
75298;BME280;63896;45.990;18.688;2023-03-31T16:07:25;99649.16;;;17.98;44.08
75298;BME280;63896;45.990;18.688;2023-03-31T16:10:31;99640.19;;;17.79;41.48
75298;BME280;63896;45.990;18.688;2023-03-31T16:13:39;99635.09;;;17.73;42.47
75298;BME280;63896;45.990;18.688;2023-03-31T16:16:53;99638.44;;;17.49;42.65
75298;BME280;63896;45.990;18.688;2023-03-31T16:20:20;99631.03;;;17.41;42.67
75298;BME280;63896;45.990;18.688;2023-03-31T16:23:27;99624.34;;;17.34;42.83
75298;BME280;63896;45.990;18.688;2023-03-31T16:26:31;99634.84;;;17.25;43.50
75298;BME280;63896;45.990;18.688;2023-03-31T16:29:36;99628.69;;;17.20;44.28
75298;BME280;63896;45.990;18.688;2023-03-31T16:32:58;99632.78;;;17.07;45.59
75298;BME280;63896;45.990;18.688;2023-03-31T16:36:04;99630.09;;;17.07;46.27
75298;BME280;63896;45.990;18.688;2023-03-31T16:39:07;99633.09;;;16.95;47.14
75298;BME280;63896;45.990;18.688;2023-03-31T16:42:10;99632.06;;;16.91;47.89
75298;BME280;63896;45.990;18.688;2023-03-31T16:45:13;99626.97;;;16.90;48.44
75298;BME280;63896;45.990;18.688;2023-03-31T16:48:26;99628.63;;;16.71;49.55
75298;BME280;63896;45.990;18.688;2023-03-31T16:51:29;99600.53;;;16.58;49.99
75298;BME280;63896;45.990;18.688;2023-03-31T16:54:33;99596.78;;;16.54;50.36
75298;BME280;63896;45.990;18.688;2023-03-31T16:57:35;99602.44;;;16.47;50.50
75298;BME280;63896;45.990;18.688;2023-03-31T17:00:39;99605.91;;;16.38;50.50
75298;BME280;63896;45.990;18.688;2023-03-31T17:03:42;99598.97;;;16.27;51.24
75298;BME280;63896;45.990;18.688;2023-03-31T17:06:45;99596.59;;;16.20;51.13
75298;BME280;63896;45.990;18.688;2023-03-31T17:09:48;99602.75;;;16.15;51.43
75298;BME280;63896;45.990;18.688;2023-03-31T17:12:52;99601.97;;;16.05;51.63
75298;BME280;63896;45.990;18.688;2023-03-31T17:15:55;99597.41;;;15.95;51.75
75298;BME280;63896;45.990;18.688;2023-03-31T17:19:14;99605.72;;;15.89;52.35
75298;BME280;63896;45.990;18.688;2023-03-31T17:22:18;99612.13;;;15.83;52.49
75298;BME280;63896;45.990;18.688;2023-03-31T17:25:22;99607.03;;;15.81;52.69
75298;BME280;63896;45.990;18.688;2023-03-31T17:28:25;99613.22;;;15.71;52.53
75298;BME280;63896;45.990;18.688;2023-03-31T17:31:28;99614.00;;;15.67;52.94
75298;BME280;63896;45.990;18.688;2023-03-31T17:34:32;99623.06;;;15.61;52.66
75298;BME280;63896;45.990;18.688;2023-03-31T17:37:35;99617.44;;;15.57;52.72
75298;BME280;63896;45.990;18.688;2023-03-31T17:40:39;99615.28;;;15.49;53.10
75298;BME280;63896;45.990;18.688;2023-03-31T17:43:46;99609.94;;;15.44;53.09
75298;BME280;63896;45.990;18.688;2023-03-31T17:46:50;99607.50;;;15.38;53.48
75298;BME280;63896;45.990;18.688;2023-03-31T17:49:54;99624.06;;;15.35;53.66
75298;BME280;63896;45.990;18.688;2023-03-31T17:52:57;99622.97;;;15.31;53.70
75298;BME280;63896;45.990;18.688;2023-03-31T17:56:01;99627.53;;;15.25;54.01
75298;BME280;63896;45.990;18.688;2023-03-31T17:59:04;99634.47;;;15.21;54.18
75298;BME280;63896;45.990;18.688;2023-03-31T18:02:10;99631.00;;;15.20;54.44
75298;BME280;63896;45.990;18.688;2023-03-31T18:05:14;99643.78;;;15.13;54.63
75298;BME280;63896;45.990;18.688;2023-03-31T18:08:20;99643.47;;;15.10;54.61
75298;BME280;63896;45.990;18.688;2023-03-31T18:11:23;99639.22;;;15.09;54.76
75298;BME280;63896;45.990;18.688;2023-03-31T18:14:27;99638.94;;;15.05;55.08
75298;BME280;63896;45.990;18.688;2023-03-31T18:17:30;99638.41;;;15.03;55.30
75298;BME280;63896;45.990;18.688;2023-03-31T18:20:33;99645.59;;;14.98;55.36
75298;BME280;63896;45.990;18.688;2023-03-31T18:23:37;99643.19;;;14.96;55.77
75298;BME280;63896;45.990;18.688;2023-03-31T18:26:40;99648.78;;;14.95;55.55
75298;BME280;63896;45.990;18.688;2023-03-31T18:29:43;99647.47;;;14.97;55.77
75298;BME280;63896;45.990;18.688;2023-03-31T18:32:46;99647.75;;;15.01;55.69
75298;BME280;63896;45.990;18.688;2023-03-31T18:35:49;99645.31;;;14.94;55.85
75298;BME280;63896;45.990;18.688;2023-03-31T18:38:53;99647.41;;;14.87;56.09
75298;BME280;63896;45.990;18.688;2023-03-31T18:41:57;99646.88;;;14.85;56.01
75298;BME280;63896;45.990;18.688;2023-03-31T18:45:01;99647.19;;;14.94;55.86
75298;BME280;63896;45.990;18.688;2023-03-31T18:48:04;99636.47;;;14.89;56.10
75298;BME280;63896;45.990;18.688;2023-03-31T18:51:08;99642.56;;;14.79;56.39
75298;BME280;63896;45.990;18.688;2023-03-31T18:54:11;99643.94;;;14.87;56.61
75298;BME280;63896;45.990;18.688;2023-03-31T18:57:14;99648.19;;;14.83;56.91
75298;BME280;63896;45.990;18.688;2023-03-31T19:00:18;99646.03;;;14.79;57.10